createdAt,value
2022-09-18T00:04:26.008Z,5.90
2022-09-18T00:14:54.851Z,6.20
2022-09-18T00:25:24.207Z,5.70
2022-09-18T00:36:31.358Z,6.00
2022-09-18T00:47:44.439Z,6.30
2022-09-18T00:58:18.395Z,6.00
2022-09-18T01:09:00.433Z,5.90
2022-09-18T01:30:12.406Z,5.90
2022-09-18T01:40:45.601Z,6.10
2022-09-18T01:51:14.527Z,6.20
2022-09-18T02:01:20.953Z,7.20
2022-09-18T02:11:47.905Z,7.60
2022-09-18T02:22:21.328Z,8.10
2022-09-18T02:32:38.250Z,7.00
2022-09-18T02:43:18.429Z,7.80
2022-09-18T02:53:41.588Z,7.80
2022-09-18T03:03:52.919Z,8.70
2022-09-18T03:14:28.680Z,7.00
2022-09-18T03:24:47.901Z,6.70
2022-09-18T03:35:12.040Z,7.10
2022-09-18T03:45:48.538Z,6.40
2022-09-18T03:56:19.833Z,7.30
2022-09-18T04:07:01.819Z,6.50
2022-09-18T04:17:36.990Z,6.00
2022-09-18T04:28:34.000Z,5.70
2022-09-18T04:39:13.713Z,5.70
2022-09-18T04:50:11.428Z,5.50
2022-09-18T05:00:53.869Z,6.60
2022-09-18T05:11:59.509Z,6.00
2022-09-18T05:22:55.594Z,6.50
2022-09-18T05:33:12.183Z,7.90
2022-09-18T05:43:55.819Z,6.30
2022-09-18T05:54:38.777Z,6.00
2022-09-18T06:05:28.520Z,6.20
2022-09-18T06:15:59.523Z,5.20
2022-09-18T06:26:31.421Z,4.40
2022-09-18T06:37:24.129Z,4.00
2022-09-18T06:48:32.186Z,4.60
2022-09-18T06:59:00.743Z,4.20
2022-09-18T07:09:21.123Z,4.10
2022-09-18T07:19:37.345Z,4.30
2022-09-18T07:30:15.454Z,4.60
2022-09-18T07:40:22.566Z,3.90
2022-09-18T07:51:48.191Z,3.90
2022-09-18T08:02:41.104Z,3.40
2022-09-18T08:12:48.437Z,3.20
2022-09-18T08:23:38.074Z,3.40
2022-09-18T08:34:08.277Z,3.10
2022-09-18T08:45:14.794Z,3.00
2022-09-18T08:56:22.053Z,3.10
2022-09-18T09:07:53.079Z,2.70
2022-09-18T09:18:45.452Z,2.70
2022-09-18T09:29:15.922Z,2.60
2022-09-18T09:40:08.074Z,2.50
2022-09-18T09:51:22.037Z,1.90
2022-09-18T10:01:46.492Z,2.50
2022-09-18T10:12:23.197Z,2.30
2022-09-18T10:22:39.216Z,2.30
2022-09-18T10:32:53.327Z,2.60
2022-09-18T10:43:19.366Z,2.40
2022-09-18T10:53:32.597Z,2.60
2022-09-18T11:04:12.008Z,2.30
2022-09-18T11:14:27.502Z,2.40
2022-09-18T11:24:53.666Z,2.40
2022-09-18T11:35:18.505Z,2.30
2022-09-18T11:45:53.130Z,2.20
2022-09-18T11:56:41.028Z,2.20
2022-09-18T12:07:39.219Z,2.10
2022-09-18T12:17:57.129Z,2.40
2022-09-18T12:28:58.908Z,2.40
2022-09-18T12:39:39.405Z,2.60
2022-09-18T12:50:17.407Z,2.90
2022-09-18T13:00:50.585Z,2.70
2022-09-18T13:11:01.959Z,2.50
2022-09-18T13:21:10.477Z,2.60
2022-09-18T13:31:37.865Z,3.80
2022-09-18T13:41:48.446Z,3.30
2022-09-18T13:52:29.735Z,4.70
2022-09-18T14:03:14.221Z,4.40
2022-09-18T14:13:29.299Z,4.00
2022-09-18T14:24:02.963Z,3.90
2022-09-18T14:34:40.348Z,4.60
2022-09-18T14:45:28.109Z,5.00
2022-09-18T14:56:08.039Z,5.60
2022-09-18T15:06:17.536Z,5.30
2022-09-18T15:16:32.953Z,7.20
2022-09-18T15:26:44.722Z,7.20
2022-09-18T15:37:05.640Z,5.60
2022-09-18T15:48:07.401Z,5.20
2022-09-18T15:58:56.690Z,4.80
2022-09-18T16:10:16.815Z,5.00
2022-09-18T16:21:05.262Z,4.40
2022-09-18T16:31:48.691Z,4.30
2022-09-18T16:42:39.509Z,4.50
2022-09-18T16:52:48.238Z,4.50
2022-09-18T17:03:00.641Z,4.20
2022-09-18T17:13:16.688Z,4.30
2022-09-18T17:23:36.898Z,4.10
2022-09-18T17:33:48.009Z,3.70
2022-09-18T17:44:28.698Z,3.90
2022-09-18T17:54:57.417Z,3.50
2022-09-18T18:06:11.459Z,2.90
2022-09-18T18:16:41.491Z,3.30
2022-09-18T18:27:01.227Z,3.20
2022-09-18T18:37:25.003Z,2.90
2022-09-18T18:47:34.095Z,3.00
2022-09-18T18:57:42.880Z,3.40
2022-09-18T19:08:09.520Z,4.00
2022-09-18T19:18:36.608Z,3.40
2022-09-18T19:28:45.846Z,3.30
2022-09-18T19:39:13.233Z,4.40
2022-09-18T19:49:40.236Z,3.70
2022-09-18T20:00:13.239Z,3.60
2022-09-18T20:10:39.941Z,4.10
2022-09-18T20:21:29.474Z,3.80
2022-09-18T20:32:02.923Z,4.30
2022-09-18T20:43:03.280Z,4.70
2022-09-18T20:53:43.372Z,6.50
2022-09-18T21:04:18.456Z,8.10
2022-09-18T21:14:54.701Z,7.60
2022-09-18T21:25:14.754Z,7.50
2022-09-18T21:35:43.786Z,5.50
2022-09-18T21:45:58.380Z,5.30
2022-09-18T21:56:32.837Z,5.80
2022-09-18T22:07:02.711Z,5.10
2022-09-18T22:17:19.762Z,5.50
2022-09-18T22:27:29.439Z,4.60
2022-09-18T22:37:35.291Z,4.10
2022-09-18T22:47:41.759Z,4.20
2022-09-18T22:58:36.228Z,3.50
2022-09-18T23:09:06.831Z,3.50
2022-09-18T23:19:36.269Z,3.10
2022-09-18T23:29:51.325Z,3.20
2022-09-18T23:40:01.059Z,2.80
2022-09-18T23:50:30.861Z,2.70
